Time;durP1;ratioP1;P1;durP2;ratioP2;P2;SDS_P1;SDS_P2;PMS_P1;PMS_P2;Temp;Humidity;BMP_temperature;BMP_pressure;BME280_temperature;BME280_humidity;BME280_pressure;Samples;Min_cycle;Max_cycle;Signal;HPM_P1;HPM_P2
2021/05/08 00:00:44;;;;;;;1.83;1.52;;;;;;;;;;5065410;28;20031;-78
2021/05/08 00:03:10;;;;;;;1.40;1.30;;;;;;;;;;5049373;28;20092;-78
2021/05/08 00:05:37;;;;;;;1.42;1.08;;;;;;;;;;5057876;28;20025;-78
2021/05/08 00:08:03;;;;;;;1.80;1.70;;;;;;;;;;5056761;28;20496;-77
2021/05/08 00:10:29;;;;;;;2.03;1.80;;;;;;;;;;5053132;28;20026;-77
2021/05/08 00:12:55;;;;;;;4.35;2.42;;;;;;;;;;5039276;28;20080;-78
2021/05/08 00:15:22;;;;;;;1.80;1.30;;;;;;;;;;5054324;28;20045;-78
2021/05/08 00:17:48;;;;;;;1.75;1.50;;;;;;;;;;5038257;28;20053;-78
2021/05/08 00:20:14;;;;;;;2.15;1.60;;;;;;;;;;5038291;28;20035;-79
2021/05/08 00:22:41;;;;;;;1.27;1.17;;;;;;;;;;5052530;28;20029;-77
2021/05/08 00:25:08;;;;;;;1.35;1.25;;;;;;;;;;5053446;28;20025;-78
2021/05/08 00:27:34;;;;;;;1.85;1.70;;;;;;;;;;5038686;28;20033;-78
2021/05/08 00:30:00;;;;;;;1.48;1.38;;;;;;;;;;5048837;28;20100;-78
2021/05/08 00:32:26;;;;;;;1.75;1.15;;;;;;;;;;5052776;28;20158;-77
2021/05/08 00:34:53;;;;;;;1.42;1.23;;;;;;;;;;5039623;28;20435;-78
2021/05/08 00:37:19;;;;;;;1.73;1.50;;;;;;;;;;5038510;28;20048;-78
2021/05/08 00:39:45;;;;;;;1.52;1.42;;;;;;;;;;5042661;28;20533;-77
2021/05/08 00:42:11;;;;;;;1.98;1.13;;;;;;;;;;5045038;28;20221;-78
2021/05/08 00:44:38;;;;;;;3.05;1.50;;;;;;;;;;5053039;28;20026;-78
2021/05/08 00:47:04;;;;;;;1.40;1.30;;;;;;;;;;5053283;28;20022;-78
2021/05/08 00:49:31;;;;;;;1.52;1.23;;;;;;;;;;5037382;28;20029;-78
2021/05/08 00:51:59;;;;;;;1.58;1.48;;;;;;;;;;5054375;28;20052;-78
2021/05/08 00:54:26;;;;;;;1.60;1.40;;;;;;;;;;5055564;28;20022;-78
2021/05/08 00:56:52;;;;;;;1.40;1.20;;;;;;;;;;5056513;28;20037;-77
2021/05/08 00:59:18;;;;;;;1.58;1.10;;;;;;;;;;5042103;28;20056;-78
2021/05/08 01:01:44;;;;;;;1.38;1.27;;;;;;;;;;5047136;28;20381;-78
2021/05/08 01:04:11;;;;;;;1.67;1.35;;;;;;;;;;5054479;28;20033;-78
2021/05/08 01:06:40;;;;;;;1.10;1.00;;;;;;;;;;5054695;28;20035;-78
2021/05/08 01:09:07;;;;;;;1.65;1.30;;;;;;;;;;5052729;28;20085;-78
2021/05/08 01:11:33;;;;;;;2.33;1.70;;;;;;;;;;5037268;28;20025;-78
2021/05/08 01:13:59;;;;;;;2.40;1.73;;;;;;;;;;5037309;28;20022;-78
2021/05/08 01:16:25;;;;;;;1.30;1.20;;;;;;;;;;5036615;28;20045;-78
2021/05/08 01:18:53;;;;;;;2.85;1.50;;;;;;;;;;5036961;28;20102;-78
2021/05/08 01:21:20;;;;;;;1.50;1.40;;;;;;;;;;5036886;28;20041;-78
2021/05/08 01:23:50;;;;;;;2.35;1.63;;;;;;;;;;5052164;28;20603;-78
2021/05/08 01:26:16;;;;;;;1.55;1.45;;;;;;;;;;5035775;28;20089;-78
2021/05/08 01:28:42;;;;;;;3.22;1.70;;;;;;;;;;5037131;28;20082;-78
2021/05/08 01:31:09;;;;;;;2.17;1.85;;;;;;;;;;5054520;28;20029;-78
2021/05/08 01:33:35;;;;;;;3.08;1.40;;;;;;;;;;5041946;28;20469;-77
2021/05/08 01:36:01;;;;;;;1.60;1.27;;;;;;;;;;5037296;28;20037;-78
2021/05/08 01:38:28;;;;;;;2.13;1.63;;;;;;;;;;5036952;28;20057;-78
2021/05/08 01:41:01;;;;;;;2.10;1.45;;;;;;;;;;5052767;28;20029;-78
2021/05/08 01:43:28;;;;;;;4.43;1.55;;;;;;;;;;5037049;28;20022;-78
2021/05/08 01:45:54;;;;;;;2.08;1.35;;;;;;;;;;5036352;28;20049;-78
2021/05/08 01:48:20;;;;;;;2.17;1.40;;;;;;;;;;5036591;28;20025;-78
2021/05/08 01:50:46;;;;;;;1.90;1.80;;;;;;;;;;5036762;28;20482;-77
2021/05/08 01:53:12;;;;;;;2.22;1.83;;;;;;;;;;5036369;28;20028;-77
2021/05/08 01:55:39;;;;;;;1.77;1.67;;;;;;;;;;5036088;28;20033;-76
2021/05/08 01:58:05;;;;;;;2.00;1.70;;;;;;;;;;5034518;28;20029;-77
2021/05/08 02:00:31;;;;;;;1.65;1.55;;;;;;;;;;5037595;28;20029;-77
2021/05/08 02:02:57;;;;;;;1.42;1.33;;;;;;;;;;5044177;28;20034;-77
2021/05/08 02:05:27;;;;;;;1.95;1.52;;;;;;;;;;5035112;28;20025;-78
2021/05/08 02:07:53;;;;;;;1.65;1.35;;;;;;;;;;5035898;28;20095;-77
2021/05/08 02:10:20;;;;;;;1.63;1.52;;;;;;;;;;5039781;28;20009;-77
2021/05/08 02:12:46;;;;;;;1.80;1.60;;;;;;;;;;5055523;28;20021;-79
2021/05/08 02:15:14;;;;;;;1.83;1.13;;;;;;;;;;5045248;28;20037;-77
2021/05/08 02:17:40;;;;;;;1.70;1.58;;;;;;;;;;5035851;28;20068;-77
2021/05/08 02:20:06;;;;;;;1.25;1.15;;;;;;;;;;5035546;28;20040;-77
2021/05/08 02:22:32;;;;;;;1.17;1.08;;;;;;;;;;5034496;28;20085;-77
2021/05/08 02:24:58;;;;;;;1.80;1.08;;;;;;;;;;5034631;28;20029;-77
2021/05/08 02:27:25;;;;;;;1.30;1.20;;;;;;;;;;5049434;28;20026;-77
2021/05/08 02:29:51;;;;;;;1.45;1.33;;;;;;;;;;5036087;28;20025;-76
2021/05/08 02:32:17;;;;;;;1.17;1.08;;;;;;;;;;5050935;28;20344;-76
2021/05/08 02:34:43;;;;;;;1.35;1.25;;;;;;;;;;5058875;28;20021;-78
2021/05/08 02:37:09;;;;;;;3.22;2.20;;;;;;;;;;5042830;28;20428;-76
2021/05/08 02:39:35;;;;;;;1.42;1.33;;;;;;;;;;5033996;28;20079;-77
2021/05/08 02:42:01;;;;;;;2.05;1.50;;;;;;;;;;5049703;28;20037;-77
2021/05/08 02:44:27;;;;;;;1.30;1.20;;;;;;;;;;5051581;28;20037;-77
2021/05/08 02:46:53;;;;;;;1.35;1.25;;;;;;;;;;5049613;28;20026;-78
2021/05/08 02:49:19;;;;;;;1.13;1.00;;;;;;;;;;5049890;28;20461;-78
2021/05/08 02:51:45;;;;;;;1.45;1.35;;;;;;;;;;5034625;28;20025;-78
2021/05/08 02:54:11;;;;;;;1.80;1.02;;;;;;;;;;5034861;28;20383;-78
2021/05/08 02:56:37;;;;;;;1.67;1.10;;;;;;;;;;5034058;28;20100;-78
2021/05/08 02:59:04;;;;;;;1.52;1.40;;;;;;;;;;5050482;28;20025;-78
2021/05/08 03:01:30;;;;;;;3.70;1.23;;;;;;;;;;5049086;28;20067;-77
2021/05/08 03:03:56;;;;;;;1.30;1.20;;;;;;;;;;5035656;28;20029;-78
2021/05/08 03:06:22;;;;;;;1.02;0.90;;;;;;;;;;5034914;28;20089;-77
2021/05/08 03:08:48;;;;;;;1.88;1.40;;;;;;;;;;5034999;28;20021;-77
2021/05/08 03:11:15;;;;;;;4.75;1.13;;;;;;;;;;5050114;28;20470;-77
2021/05/08 03:13:41;;;;;;;2.03;1.33;;;;;;;;;;5049848;28;20022;-77
2021/05/08 03:16:07;;;;;;;2.78;1.80;;;;;;;;;;5042909;28;20018;-78
2021/05/08 03:18:33;;;;;;;3.13;1.67;;;;;;;;;;5050452;28;20030;-77
2021/05/08 03:20:59;;;;;;;1.90;1.42;;;;;;;;;;5035494;28;20509;-78
2021/05/08 03:23:25;;;;;;;1.58;1.48;;;;;;;;;;5035119;28;20077;-78
2021/05/08 03:25:52;;;;;;;1.40;1.30;;;;;;;;;;5049947;28;20149;-77
2021/05/08 03:28:18;;;;;;;2.00;1.20;;;;;;;;;;5034872;28;20060;-78
2021/05/08 03:30:44;;;;;;;2.78;1.20;;;;;;;;;;5060318;28;20025;-78
2021/05/08 03:33:10;;;;;;;1.10;1.10;;;;;;;;;;5047361;28;20022;-77
2021/05/08 03:35:36;;;;;;;1.92;1.05;;;;;;;;;;5036942;28;20464;-78
2021/05/08 03:38:02;;;;;;;1.55;1.45;;;;;;;;;;5039783;28;20033;-78
2021/05/08 03:40:28;;;;;;;2.00;1.15;;;;;;;;;;5042008;28;20076;-78
2021/05/08 03:42:54;;;;;;;1.15;1.05;;;;;;;;;;5041753;28;20044;-77
2021/05/08 03:45:20;;;;;;;1.83;1.27;;;;;;;;;;5038312;28;20343;-76
2021/05/08 03:47:46;;;;;;;2.25;1.52;;;;;;;;;;5035230;28;20029;-77
2021/05/08 03:50:13;;;;;;;2.88;1.63;;;;;;;;;;5036305;28;20191;-77
2021/05/08 03:52:39;;;;;;;2.20;1.42;;;;;;;;;;5036460;28;20477;-77
2021/05/08 03:55:05;;;;;;;1.50;1.20;;;;;;;;;;5036934;28;20029;-77
2021/05/08 03:57:31;;;;;;;1.88;1.42;;;;;;;;;;5036164;28;20037;-77
2021/05/08 03:59:58;;;;;;;2.00;1.40;;;;;;;;;;5044462;28;20131;-76
2021/05/08 04:02:24;;;;;;;1.77;1.33;;;;;;;;;;5044364;28;20029;-77
2021/05/08 04:04:50;;;;;;;1.63;1.30;;;;;;;;;;5056011;28;20081;-77
2021/05/08 04:07:16;;;;;;;1.85;1.20;;;;;;;;;;5055856;28;20055;-76
2021/05/08 04:09:42;;;;;;;1.27;1.17;;;;;;;;;;5048281;28;20517;-76
2021/05/08 04:12:08;;;;;;;1.52;1.38;;;;;;;;;;5036219;28;20144;-76
2021/05/08 04:14:34;;;;;;;2.00;1.38;;;;;;;;;;5035937;28;20418;-77
2021/05/08 04:17:00;;;;;;;1.63;1.30;;;;;;;;;;5035974;28;20528;-77
2021/05/08 04:19:26;;;;;;;1.10;1.00;;;;;;;;;;5034290;28;20084;-77
2021/05/08 04:21:52;;;;;;;1.10;1.00;;;;;;;;;;5035995;28;20018;-76
2021/05/08 04:24:18;;;;;;;1.13;1.02;;;;;;;;;;5035770;28;20084;-77
2021/05/08 04:26:44;;;;;;;2.03;1.30;;;;;;;;;;5035787;28;20125;-76
2021/05/08 04:29:10;;;;;;;1.10;1.00;;;;;;;;;;5037666;28;20075;-77
2021/05/08 04:31:36;;;;;;;2.00;1.38;;;;;;;;;;5040206;28;20028;-77
2021/05/08 04:34:03;;;;;;;1.23;1.10;;;;;;;;;;5038395;28;20017;-77
2021/05/08 04:36:29;;;;;;;1.50;1.17;;;;;;;;;;5035885;28;20132;-79
2021/05/08 04:38:55;;;;;;;1.52;1.08;;;;;;;;;;5035172;28;20029;-78
2021/05/08 04:41:21;;;;;;;1.08;1.00;;;;;;;;;;5043500;28;20025;-77
2021/05/08 04:43:47;;;;;;;1.88;1.10;;;;;;;;;;5015361;28;20036;-79
2021/05/08 04:46:13;;;;;;;0.80;0.80;;;;;;;;;;5015064;28;20029;-77
2021/05/08 04:48:39;;;;;;;1.92;1.33;;;;;;;;;;5031469;28;20024;-78
2021/05/08 04:51:05;;;;;;;1.70;1.35;;;;;;;;;;5016084;28;20026;-78
2021/05/08 04:53:33;;;;;;;1.60;1.25;;;;;;;;;;5023198;28;20029;-77
2021/05/08 04:55:59;;;;;;;0.80;0.80;;;;;;;;;;5024305;28;20395;-77
2021/05/08 04:58:25;;;;;;;1.08;0.90;;;;;;;;;;5017590;28;20033;-76
2021/05/08 05:00:52;;;;;;;0.85;0.85;;;;;;;;;;5037003;28;20059;-79
2021/05/08 05:03:18;;;;;;;1.77;1.40;;;;;;;;;;5041170;28;20385;-77
2021/05/08 05:05:44;;;;;;;1.95;1.20;;;;;;;;;;5036527;28;20053;-78
2021/05/08 05:08:10;;;;;;;1.85;1.08;;;;;;;;;;5036370;28;20025;-78
2021/05/08 05:10:36;;;;;;;3.63;1.75;;;;;;;;;;5036479;28;20022;-76
2021/05/08 05:13:02;;;;;;;3.92;1.92;;;;;;;;;;5035974;28;20026;-76
2021/05/08 05:15:29;;;;;;;2.70;1.70;;;;;;;;;;5050675;28;20192;-77
2021/05/08 05:17:56;;;;;;;2.50;1.42;;;;;;;;;;5036320;28;20108;-77
2021/05/08 05:20:22;;;;;;;2.35;1.50;;;;;;;;;;5038780;28;20091;-78
2021/05/08 05:22:48;;;;;;;2.40;1.48;;;;;;;;;;5040656;28;20078;-78
2021/05/08 05:25:14;;;;;;;2.25;1.60;;;;;;;;;;5036253;28;20034;-77
2021/05/08 05:27:40;;;;;;;2.17;1.48;;;;;;;;;;5038333;28;20120;-79
2021/05/08 05:30:06;;;;;;;1.48;1.25;;;;;;;;;;5044305;28;20025;-79
2021/05/08 05:32:33;;;;;;;1.20;1.05;;;;;;;;;;5046500;28;20025;-78
2021/05/08 05:34:59;;;;;;;1.45;0.82;;;;;;;;;;5041046;28;20449;-79
2021/05/08 05:37:25;;;;;;;0.95;0.77;;;;;;;;;;5039983;28;20025;-78
2021/05/08 05:39:51;;;;;;;0.73;0.73;;;;;;;;;;5042639;28;20021;-80
2021/05/08 05:42:17;;;;;;;0.60;0.60;;;;;;;;;;5041954;28;20029;-77
2021/05/08 05:44:43;;;;;;;1.65;0.80;;;;;;;;;;5056384;28;20043;-79
2021/05/08 05:47:20;;;;;;;2.00;1.00;;;;;;;;;;5040874;28;20017;-79
2021/05/08 05:49:47;;;;;;;0.80;0.80;;;;;;;;;;5056629;28;20378;-80
2021/05/08 05:52:13;;;;;;;0.93;0.80;;;;;;;;;;5054882;28;20093;-77
2021/05/08 05:54:42;;;;;;;0.70;0.70;;;;;;;;;;5065889;28;20037;-77
2021/05/08 05:57:08;;;;;;;0.68;0.68;;;;;;;;;;5052995;28;20044;-78
2021/05/08 05:59:34;;;;;;;1.30;0.50;;;;;;;;;;5059048;28;20039;-77
2021/05/08 06:02:00;;;;;;;0.40;0.40;;;;;;;;;;5068065;28;20029;-75
2021/05/08 06:04:26;;;;;;;0.52;0.52;;;;;;;;;;5048183;28;20025;-78
2021/05/08 06:06:52;;;;;;;0.85;0.70;;;;;;;;;;5041727;28;20060;-79
2021/05/08 06:09:18;;;;;;;0.70;0.70;;;;;;;;;;5042837;28;20081;-80
2021/05/08 06:11:44;;;;;;;0.85;0.70;;;;;;;;;;5039431;28;20022;-80
2021/05/08 06:14:10;;;;;;;1.20;0.50;;;;;;;;;;5039110;28;20057;-80
2021/05/08 06:16:36;;;;;;;0.73;0.60;;;;;;;;;;5039137;28;20033;-80
2021/05/08 06:19:02;;;;;;;0.80;0.50;;;;;;;;;;5054261;28;20034;-79
2021/05/08 06:21:29;;;;;;;0.68;0.60;;;;;;;;;;5038423;28;20477;-80
2021/05/08 06:23:55;;;;;;;0.70;0.65;;;;;;;;;;5037920;28;20021;-78
2021/05/08 06:26:21;;;;;;;0.68;0.60;;;;;;;;;;5037653;28;20386;-80
2021/05/08 06:28:47;;;;;;;0.80;0.80;;;;;;;;;;5052811;28;20029;-79
2021/05/08 06:31:13;;;;;;;0.95;0.93;;;;;;;;;;5047461;28;20064;-79
2021/05/08 06:33:39;;;;;;;0.70;0.70;;;;;;;;;;5042128;28;20053;-80
2021/05/08 06:36:05;;;;;;;1.00;0.90;;;;;;;;;;5035755;28;20026;-80
2021/05/08 06:38:31;;;;;;;1.75;0.80;;;;;;;;;;5037973;28;20113;-80
2021/05/08 06:40:57;;;;;;;2.83;1.10;;;;;;;;;;5037466;28;20045;-80
2021/05/08 06:43:23;;;;;;;2.00;0.70;;;;;;;;;;5062555;28;20097;-78
2021/05/08 06:45:49;;;;;;;7.35;1.40;;;;;;;;;;5047594;28;20413;-78
2021/05/08 06:48:15;;;;;;;0.80;0.80;;;;;;;;;;5043425;28;20358;-79
2021/05/08 06:50:45;;;;;;;1.58;1.20;;;;;;;;;;5054876;28;20030;-79
2021/05/08 06:53:12;;;;;;;0.95;0.93;;;;;;;;;;5039608;28;20438;-79
2021/05/08 06:55:38;;;;;;;0.77;0.77;;;;;;;;;;5037019;28;20061;-79
2021/05/08 06:58:05;;;;;;;1.27;1.10;;;;;;;;;;5037061;28;20033;-78
2021/05/08 07:00:31;;;;;;;0.95;0.80;;;;;;;;;;5049272;28;20025;-78
2021/05/08 07:02:57;;;;;;;0.65;0.65;;;;;;;;;;5043880;28;20075;-77
2021/05/08 07:05:23;;;;;;;1.48;1.08;;;;;;;;;;5039203;28;20037;-77
2021/05/08 07:08:00;;;;;;;1.38;0.80;;;;;;;;;;5042461;28;20022;-76
2021/05/08 07:10:26;;;;;;;0.65;0.52;;;;;;;;;;5058340;28;20029;-76
2021/05/08 07:12:52;;;;;;;2.60;0.70;;;;;;;;;;5054286;28;20038;-78
2021/05/08 07:15:18;;;;;;;1.13;0.90;;;;;;;;;;5058462;28;20029;-81
2021/05/08 07:17:44;;;;;;;1.27;1.02;;;;;;;;;;5040353;28;20041;-79
2021/05/08 07:20:10;;;;;;;2.30;1.20;;;;;;;;;;5040013;28;20033;-79
2021/05/08 07:22:39;;;;;;;2.05;1.00;;;;;;;;;;5039349;28;20034;-79
2021/05/08 07:25:05;;;;;;;1.73;1.20;;;;;;;;;;5039423;28;20158;-79
2021/05/08 07:27:31;;;;;;;1.50;1.17;;;;;;;;;;5039453;28;20022;-78
2021/05/08 07:29:57;;;;;;;1.00;0.80;;;;;;;;;;5046360;28;20029;-78
2021/05/08 07:32:23;;;;;;;3.85;1.42;;;;;;;;;;5055633;28;20013;-76
2021/05/08 07:34:49;;;;;;;1.38;1.25;;;;;;;;;;5039948;28;20021;-77
2021/05/08 07:37:16;;;;;;;2.08;1.50;;;;;;;;;;5039892;28;20497;-78
2021/05/08 07:39:42;;;;;;;1.88;1.55;;;;;;;;;;5038686;28;20045;-78
2021/05/08 07:42:08;;;;;;;1.70;1.42;;;;;;;;;;5041214;28;20102;-78
2021/05/08 07:44:34;;;;;;;2.38;1.25;;;;;;;;;;5047215;28;20025;-78
2021/05/08 07:47:01;;;;;;;2.10;1.60;;;;;;;;;;5043778;28;20105;-76
2021/05/08 07:49:27;;;;;;;2.13;1.20;;;;;;;;;;5060205;28;20025;-77
2021/05/08 07:51:53;;;;;;;2.47;0.85;;;;;;;;;;5042341;28;20040;-77
2021/05/08 07:54:19;;;;;;;1.40;0.95;;;;;;;;;;5041535;28;20106;-78
2021/05/08 07:56:45;;;;;;;1.20;1.10;;;;;;;;;;5041848;28;20050;-78
2021/05/08 07:59:11;;;;;;;1.65;1.00;;;;;;;;;;5043861;28;20030;-78
2021/05/08 08:01:37;;;;;;;2.50;1.42;;;;;;;;;;5061228;28;20098;-78
2021/05/08 08:04:03;;;;;;;2.75;1.92;;;;;;;;;;5044547;28;20042;-78
2021/05/08 08:06:30;;;;;;;2.45;1.40;;;;;;;;;;5042804;28;20397;-78
2021/05/08 08:08:56;;;;;;;2.35;1.20;;;;;;;;;;5043408;28;20567;-77
2021/05/08 08:11:22;;;;;;;1.05;0.90;;;;;;;;;;5043779;28;20132;-77
2021/05/08 08:13:49;;;;;;;2.65;1.00;;;;;;;;;;5048886;28;20025;-80
2021/05/08 08:16:15;;;;;;;3.58;0.90;;;;;;;;;;5065883;28;20029;-77
2021/05/08 08:18:41;;;;;;;2.17;1.25;;;;;;;;;;5067351;28;20081;-77
2021/05/08 08:21:07;;;;;;;5.35;1.52;;;;;;;;;;5049305;28;20030;-78
2021/05/08 08:23:33;;;;;;;2.35;1.10;;;;;;;;;;5043861;28;20053;-77
2021/05/08 08:25:59;;;;;;;1.30;1.02;;;;;;;;;;5042016;28;20094;-79
2021/05/08 08:28:25;;;;;;;1.20;0.90;;;;;;;;;;5057446;28;20022;-79
2021/05/08 08:30:51;;;;;;;1.45;0.90;;;;;;;;;;5057228;28;20059;-80
2021/05/08 08:33:17;;;;;;;2.95;1.30;;;;;;;;;;5044966;28;20048;-77
2021/05/08 08:35:44;;;;;;;2.13;1.15;;;;;;;;;;5061887;28;20419;-76
2021/05/08 08:38:10;;;;;;;2.03;1.10;;;;;;;;;;5057530;28;20029;-75
2021/05/08 08:40:36;;;;;;;2.63;1.48;;;;;;;;;;5059992;28;20028;-78
2021/05/08 08:43:03;;;;;;;3.50;1.10;;;;;;;;;;5039951;28;20150;-78
2021/05/08 08:45:29;;;;;;;1.38;0.90;;;;;;;;;;5040429;28;20055;-79
2021/05/08 08:47:55;;;;;;;3.00;1.45;;;;;;;;;;5041883;28;20029;-78
2021/05/08 08:50:21;;;;;;;1.92;1.15;;;;;;;;;;5041792;28;20021;-78
2021/05/08 08:52:48;;;;;;;0.80;0.80;;;;;;;;;;5056210;28;20033;-79
2021/05/08 08:55:14;;;;;;;1.60;1.10;;;;;;;;;;5042382;28;20033;-80
2021/05/08 08:57:42;;;;;;;2.40;1.35;;;;;;;;;;5042417;28;20087;-79
2021/05/08 09:00:09;;;;;;;2.90;1.05;;;;;;;;;;5058669;28;20106;-79
2021/05/08 09:02:35;;;;;;;0.90;0.82;;;;;;;;;;5053524;28;20024;-79
2021/05/08 09:05:01;;;;;;;1.42;0.93;;;;;;;;;;5061109;28;20234;-78
2021/05/08 09:07:28;;;;;;;1.35;0.90;;;;;;;;;;5061416;28;20331;-80
2021/05/08 09:09:54;;;;;;;0.60;0.60;;;;;;;;;;5057729;28;20025;-77
2021/05/08 09:12:26;;;;;;;0.52;0.52;;;;;;;;;;5055719;28;20056;-78
2021/05/08 09:14:52;;;;;;;1.00;0.70;;;;;;;;;;5054569;28;20048;-78
2021/05/08 09:17:21;;;;;;;1.63;0.82;;;;;;;;;;5039771;28;20260;-79
2021/05/08 09:20:01;;;;;;;1.48;0.80;;;;;;;;;;5053250;28;20021;-79
2021/05/08 09:22:29;;;;;;;0.55;0.55;;;;;;;;;;5016389;28;20160;-80
2021/05/08 09:24:55;;;;;;;0.70;0.70;;;;;;;;;;5016495;28;20458;-78
2021/05/08 09:27:34;;;;;;;0.88;0.80;;;;;;;;;;5016211;28;20026;-79
2021/05/08 09:30:05;;;;;;;3.95;1.60;;;;;;;;;;5034084;28;20025;-80
2021/05/08 09:32:39;;;;;;;1.67;1.58;;;;;;;;;;5044648;28;20532;-77
2021/05/08 09:35:28;;;;;;;1.65;0.98;;;;;;;;;;5036151;28;20051;-79
2021/05/08 09:38:09;;;;;;;3.45;0.88;;;;;;;;;;5031708;28;20044;-78
2021/05/08 09:40:36;;;;;;;0.73;0.68;;;;;;;;;;5038051;28;20427;-79
2021/05/08 09:43:08;;;;;;;1.38;0.80;;;;;;;;;;5038143;28;20110;-79
2021/05/08 09:45:37;;;;;;;0.63;0.63;;;;;;;;;;5037123;28;20070;-78
2021/05/08 09:48:16;;;;;;;0.52;0.47;;;;;;;;;;5036365;28;20382;-79
2021/05/08 09:50:42;;;;;;;0.80;0.70;;;;;;;;;;5036144;28;20073;-79
2021/05/08 09:53:08;;;;;;;0.70;0.70;;;;;;;;;;5051325;28;20025;-79
2021/05/08 09:55:35;;;;;;;0.70;0.50;;;;;;;;;;5036455;28;20048;-78
2021/05/08 09:58:07;;;;;;;0.77;0.77;;;;;;;;;;5051695;28;20037;-79
2021/05/08 10:00:33;;;;;;;1.40;0.90;;;;;;;;;;5044951;28;20037;-77
2021/05/08 10:03:04;;;;;;;1.05;1.05;;;;;;;;;;5050582;28;20044;-76
2021/05/08 10:05:31;;;;;;;0.90;0.70;;;;;;;;;;5054701;28;20342;-75
2021/05/08 10:07:57;;;;;;;1.13;0.65;;;;;;;;;;5045091;28;20115;-76
2021/05/08 10:10:23;;;;;;;1.75;0.82;;;;;;;;;;5037962;28;20014;-77
2021/05/08 10:12:49;;;;;;;1.40;0.93;;;;;;;;;;5037442;28;20056;-76
2021/05/08 10:15:16;;;;;;;1.90;1.02;;;;;;;;;;5037697;28;20033;-79
2021/05/08 10:17:44;;;;;;;0.95;0.75;;;;;;;;;;5057083;28;20060;-77
2021/05/08 10:20:13;;;;;;;1.27;1.10;;;;;;;;;;5036413;28;20009;-78
2021/05/08 10:22:46;;;;;;;1.02;0.82;;;;;;;;;;5036287;28;20424;-78
2021/05/08 10:25:12;;;;;;;0.60;0.60;;;;;;;;;;5051259;28;20103;-77
2021/05/08 10:27:39;;;;;;;0.57;0.57;;;;;;;;;;5035872;28;20069;-78
2021/05/08 10:30:06;;;;;;;0.93;0.93;;;;;;;;;;5046206;28;20380;-78
2021/05/08 10:32:33;;;;;;;1.05;0.90;;;;;;;;;;5044972;28;20501;-78
2021/05/08 10:35:03;;;;;;;0.85;0.75;;;;;;;;;;5036991;28;20044;-78
2021/05/08 10:37:30;;;;;;;3.08;1.13;;;;;;;;;;5038887;28;20025;-78
2021/05/08 10:40:03;;;;;;;1.88;1.40;;;;;;;;;;5042273;28;20339;-75
2021/05/08 10:42:37;;;;;;;0.80;0.80;;;;;;;;;;5048852;28;20044;-76
2021/05/08 10:45:04;;;;;;;2.35;0.90;;;;;;;;;;5063130;28;20048;-78
2021/05/08 10:47:58;;;;;;;1.88;1.00;;;;;;;;;;5041877;28;20357;-78
2021/05/08 10:50:24;;;;;;;0.77;0.68;;;;;;;;;;5033862;28;20061;-78
2021/05/08 10:53:06;;;;;;;1.42;0.90;;;;;;;;;;5046093;28;20085;-76
2021/05/08 10:55:52;;;;;;;0.70;0.70;;;;;;;;;;5042348;28;20068;-76
2021/05/08 10:58:21;;;;;;;0.82;0.80;;;;;;;;;;5040016;28;20159;-78
2021/05/08 11:00:57;;;;;;;0.60;0.57;;;;;;;;;;5051003;28;20033;-79
2021/05/08 11:03:24;;;;;;;0.52;0.43;;;;;;;;;;5044349;28;20084;-78
2021/05/08 11:06:00;;;;;;;0.50;0.50;;;;;;;;;;5059461;28;20045;-78
2021/05/08 11:08:26;;;;;;;1.75;0.80;;;;;;;;;;5054410;28;20397;-78
2021/05/08 11:10:56;;;;;;;0.65;0.40;;;;;;;;;;5056488;28;20063;-78
2021/05/08 11:13:24;;;;;;;0.40;0.40;;;;;;;;;;5040850;28;20033;-79
2021/05/08 11:15:50;;;;;;;0.45;0.45;;;;;;;;;;5041103;28;20087;-79
2021/05/08 11:18:41;;;;;;;0.77;0.50;;;;;;;;;;5055704;28;20025;-77
2021/05/08 11:21:28;;;;;;;1.23;0.80;;;;;;;;;;5056096;28;20465;-78
2021/05/08 11:24:04;;;;;;;1.27;0.60;;;;;;;;;;5039298;28;20029;-78
2021/05/08 11:26:30;;;;;;;0.47;0.47;;;;;;;;;;5039416;28;20018;-78
2021/05/08 11:28:57;;;;;;;0.50;0.50;;;;;;;;;;5040312;28;20017;-77
2021/05/08 11:31:43;;;;;;;0.45;0.40;;;;;;;;;;5061886;28;20017;-77
2021/05/08 11:34:18;;;;;;;0.90;0.90;;;;;;;;;;5041699;28;20132;-78
2021/05/08 11:36:46;;;;;;;0.45;0.45;;;;;;;;;;5039425;28;20365;-79
2021/05/08 11:39:12;;;;;;;0.40;0.40;;;;;;;;;;5041340;28;20032;-77
2021/05/08 11:41:39;;;;;;;0.65;0.57;;;;;;;;;;5042211;28;20067;-77
2021/05/08 11:44:05;;;;;;;1.48;0.57;;;;;;;;;;5040097;28;20496;-78
2021/05/08 11:46:33;;;;;;;0.40;0.40;;;;;;;;;;5038881;28;20072;-77
2021/05/08 11:48:59;;;;;;;1.27;0.50;;;;;;;;;;5039834;28;20026;-79
2021/05/08 11:51:26;;;;;;;1.52;0.60;;;;;;;;;;5040148;28;20109;-78
2021/05/08 11:54:05;;;;;;;1.13;0.50;;;;;;;;;;5040201;28;20159;-79
2021/05/08 11:56:31;;;;;;;0.63;0.50;;;;;;;;;;5055093;28;20033;-79
2021/05/08 11:58:59;;;;;;;1.08;0.60;;;;;;;;;;5040424;28;20033;-78
2021/05/08 12:01:25;;;;;;;0.75;0.60;;;;;;;;;;5055617;28;20021;-79
2021/05/08 12:03:55;;;;;;;0.73;0.50;;;;;;;;;;5055864;28;20092;-79
2021/05/08 12:06:21;;;;;;;0.68;0.50;;;;;;;;;;5059259;28;20044;-79
2021/05/08 12:08:47;;;;;;;1.17;0.70;;;;;;;;;;5050451;28;20489;-78
2021/05/08 12:11:17;;;;;;;1.35;0.80;;;;;;;;;;5039570;28;20080;-77
2021/05/08 12:13:43;;;;;;;1.70;0.70;;;;;;;;;;5050958;28;20044;-76
2021/05/08 12:16:10;;;;;;;1.08;0.65;;;;;;;;;;5051723;28;20026;-76
2021/05/08 12:18:36;;;;;;;0.65;0.60;;;;;;;;;;5035432;28;20033;-78
2021/05/08 12:21:02;;;;;;;0.40;0.40;;;;;;;;;;5051400;28;20033;-77
2021/05/08 12:23:29;;;;;;;0.50;0.50;;;;;;;;;;5035406;28;20025;-77
2021/05/08 12:26:11;;;;;;;0.50;0.43;;;;;;;;;;5035029;28;20413;-76
2021/05/08 12:28:39;;;;;;;1.20;0.60;;;;;;;;;;5035718;28;20501;-77
2021/05/08 12:31:24;;;;;;;1.10;0.40;;;;;;;;;;5051989;28;20083;-78
2021/05/08 12:33:51;;;;;;;2.22;0.40;;;;;;;;;;5033707;28;20018;-77
2021/05/08 12:36:19;;;;;;;1.27;0.63;;;;;;;;;;5035701;28;20021;-78
2021/05/08 12:38:45;;;;;;;0.52;0.38;;;;;;;;;;5035766;28;20025;-78
2021/05/08 12:41:25;;;;;;;0.40;0.30;;;;;;;;;;5035527;28;20486;-77
2021/05/08 12:43:51;;;;;;;0.52;0.40;;;;;;;;;;5036388;28;20033;-77
2021/05/08 12:46:17;;;;;;;0.70;0.57;;;;;;;;;;5036315;28;20530;-78
2021/05/08 12:48:44;;;;;;;2.58;0.40;;;;;;;;;;5051268;28;20029;-78
2021/05/08 12:51:25;;;;;;;1.75;0.73;;;;;;;;;;5034872;28;20022;-77
2021/05/08 12:54:09;;;;;;;1.20;0.60;;;;;;;;;;5034994;28;20068;-79
2021/05/08 12:56:35;;;;;;;1.30;0.65;;;;;;;;;;5034542;28;20033;-76
2021/05/08 12:59:02;;;;;;;0.50;0.50;;;;;;;;;;5038508;28;20033;-78
2021/05/08 13:01:28;;;;;;;0.43;0.43;;;;;;;;;;5064321;28;20040;-78
2021/05/08 13:03:54;;;;;;;0.30;0.30;;;;;;;;;;5060496;28;20481;-77
2021/05/08 13:06:26;;;;;;;0.35;0.35;;;;;;;;;;5058135;28;20515;-77
2021/05/08 13:08:53;;;;;;;0.40;0.40;;;;;;;;;;5050000;28;20030;-76
2021/05/08 13:11:36;;;;;;;0.60;0.60;;;;;;;;;;5052003;28;20028;-77
2021/05/08 13:14:17;;;;;;;0.80;0.80;;;;;;;;;;5037405;28;20032;-76
2021/05/08 13:16:44;;;;;;;0.95;0.90;;;;;;;;;;5037108;28;20394;-78
2021/05/08 13:19:10;;;;;;;0.60;0.60;;;;;;;;;;5038257;28;20347;-78
2021/05/08 13:21:36;;;;;;;0.65;0.57;;;;;;;;;;5052180;28;20045;-77
2021/05/08 13:24:03;;;;;;;0.60;0.30;;;;;;;;;;5035407;28;20027;-78
2021/05/08 13:26:29;;;;;;;0.63;0.60;;;;;;;;;;5034622;28;20029;-78
2021/05/08 13:28:55;;;;;;;0.63;0.40;;;;;;;;;;5050623;28;20018;-77
2021/05/08 13:31:21;;;;;;;0.43;0.43;;;;;;;;;;5051218;28;20079;-78
2021/05/08 13:33:49;;;;;;;0.73;0.50;;;;;;;;;;5035067;28;20088;-77
2021/05/08 13:36:19;;;;;;;0.93;0.50;;;;;;;;;;5033378;28;20021;-76
2021/05/08 13:38:45;;;;;;;0.50;0.50;;;;;;;;;;5034653;28;20021;-76
2021/05/08 13:41:11;;;;;;;4.65;0.82;;;;;;;;;;5035142;28;20040;-76
2021/05/08 13:43:38;;;;;;;0.47;0.40;;;;;;;;;;5034366;28;20085;-77
2021/05/08 13:46:04;;;;;;;3.13;0.50;;;;;;;;;;5035653;28;20025;-77
2021/05/08 13:48:30;;;;;;;0.50;0.35;;;;;;;;;;5050022;28;20453;-77
2021/05/08 13:50:56;;;;;;;0.45;0.45;;;;;;;;;;5035247;28;20269;-77
2021/05/08 13:53:22;;;;;;;0.77;0.50;;;;;;;;;;5034241;28;20346;-77
2021/05/08 13:55:48;;;;;;;1.17;0.40;;;;;;;;;;5034821;28;20064;-78
2021/05/08 13:58:14;;;;;;;0.40;0.40;;;;;;;;;;5034622;28;20022;-77
2021/05/08 14:00:40;;;;;;;0.40;0.40;;;;;;;;;;5047823;28;20028;-78
2021/05/08 14:03:06;;;;;;;2.97;1.40;;;;;;;;;;5047506;28;20048;-77
2021/05/08 14:05:33;;;;;;;1.20;0.70;;;;;;;;;;5057494;28;20067;-79
2021/05/08 14:07:59;;;;;;;0.65;0.38;;;;;;;;;;5057978;28;20021;-79
2021/05/08 14:10:25;;;;;;;0.30;0.30;;;;;;;;;;5053701;28;20039;-77
2021/05/08 14:12:51;;;;;;;1.13;0.40;;;;;;;;;;5036878;28;20394;-78
2021/05/08 14:15:17;;;;;;;0.50;0.40;;;;;;;;;;5040586;28;20025;-77
2021/05/08 14:17:43;;;;;;;0.32;0.32;;;;;;;;;;5066450;28;20165;-78
2021/05/08 14:20:10;;;;;;;0.20;0.20;;;;;;;;;;5040820;28;20032;-78
2021/05/08 14:22:36;;;;;;;0.70;0.38;;;;;;;;;;5043304;28;20017;-76
2021/05/08 14:25:06;;;;;;;0.85;0.40;;;;;;;;;;5063168;28;20132;-77
2021/05/08 14:27:32;;;;;;;0.40;0.40;;;;;;;;;;5034832;28;20026;-78
2021/05/08 14:30:01;;;;;;;0.30;0.30;;;;;;;;;;5037591;28;20032;-79
2021/05/08 14:32:28;;;;;;;0.25;0.25;;;;;;;;;;5054245;28;20039;-76
2021/05/08 14:34:55;;;;;;;0.90;0.60;;;;;;;;;;5069958;28;20025;-76
2021/05/08 14:37:21;;;;;;;0.30;0.30;;;;;;;;;;5062357;28;20463;-77
2021/05/08 14:39:47;;;;;;;0.30;0.30;;;;;;;;;;5038663;28;20026;-79
2021/05/08 14:42:13;;;;;;;0.30;0.30;;;;;;;;;;5037823;28;20091;-80
2021/05/08 14:44:40;;;;;;;0.30;0.30;;;;;;;;;;5053225;28;20056;-79